Bom Fim do Bom Jesus, Brazil
Current Conditions -  °F | °C
As of 5:00 AM on Tuesday 21 Oct 2014 (Local Time) from SBKP Reporting Station
Scattered Clouds Scattered Clouds  
Wind Chill: 64°   Ceiling: Unl
Heat Index: 64°   Visibility: 6mi
Dew Point: 57°   Wind: 14mph
Humidity: 77%   Direction: 150°SSE
Pressure: 30.06"   Gusts: NA
Location:  23.29°S, 47.06°W
Report Text: SBKP 210700Z 15012KT 9999 SCT020 SCT100 18/14 Q1018
Loading
Personal Weather Stations






























Interactive Weather Map
Tropical Storm Tracking
New forecast layout! Learn more

10-Day Weather Forecast

Advertisements
Track Severe Weather on mobile